Time;durP1;ratioP1;P1;durP2;ratioP2;P2;SDS_P1;SDS_P2;PMS_P1;PMS_P2;Temp;Humidity;BMP_temperature;BMP_pressure;BME280_temperature;BME280_humidity;BME280_pressure;Samples;Min_cycle;Max_cycle;Signal;HPM_P1;HPM_P2
2022/05/08 00:00:33;;;;;;;24.23;5.27;;;10.00;99.90;;;;;;5137630;27;20066;-67
2022/05/08 00:02:58;;;;;;;20.17;4.37;;;10.00;99.90;;;;;;5137287;27;20277;-67
2022/05/08 00:05:25;;;;;;;22.07;5.00;;;10.10;99.90;;;;;;5136510;27;20288;-68
2022/05/08 00:07:51;;;;;;;21.93;4.40;;;10.00;99.90;;;;;;5137066;27;20036;-68
2022/05/08 00:10:16;;;;;;;21.33;5.03;;;9.90;99.90;;;;;;5136426;27;20756;-67
2022/05/08 00:12:42;;;;;;;21.83;5.27;;;9.90;99.90;;;;;;5137187;27;20468;-67
2022/05/08 00:15:08;;;;;;;19.53;4.30;;;9.90;99.90;;;;;;5136853;27;20395;-67
2022/05/08 00:17:34;;;;;;;20.40;4.00;;;9.90;99.90;;;;;;5135957;27;20080;-67
2022/05/08 00:20:03;;;;;;;20.80;4.13;;;9.90;99.90;;;;;;5136870;27;20124;-67
2022/05/08 00:22:28;;;;;;;16.53;3.93;;;10.00;99.90;;;;;;5137057;27;20051;-67
2022/05/08 00:24:55;;;;;;;18.27;4.73;;;10.10;99.90;;;;;;5136615;27;20410;-68
2022/05/08 00:27:21;;;;;;;21.60;4.67;;;10.10;99.90;;;;;;5136977;27;20054;-68
2022/05/08 00:29:46;;;;;;;22.30;4.30;;;10.00;99.90;;;;;;5152995;27;20280;-69
2022/05/08 00:32:12;;;;;;;21.30;4.73;;;10.00;99.90;;;;;;5136853;27;20047;-68
2022/05/08 00:34:38;;;;;;;26.33;4.97;;;10.00;99.90;;;;;;5135689;27;20039;-68
2022/05/08 00:37:05;;;;;;;23.93;4.90;;;10.00;99.90;;;;;;5136519;27;20043;-68
2022/05/08 00:39:32;;;;;;;24.33;4.87;;;9.90;99.90;;;;;;5136635;27;20047;-68
2022/05/08 00:41:58;;;;;;;21.63;4.63;;;10.00;99.90;;;;;;5136033;27;20288;-68
2022/05/08 00:44:24;;;;;;;22.17;5.63;;;9.90;99.90;;;;;;5136286;27;20752;-67
2022/05/08 00:46:50;;;;;;;28.87;6.40;;;9.90;99.90;;;;;;5136216;27;20280;-68
2022/05/08 00:49:16;;;;;;;27.87;6.97;;;9.90;99.90;;;;;;5135287;27;20043;-67
2022/05/08 00:51:47;;;;;;;22.17;5.27;;;9.80;99.90;;;;;;5136494;27;20087;-67
2022/05/08 00:54:14;;;;;;;18.93;5.47;;;9.90;99.90;;;;;;5136136;27;20050;-68
2022/05/08 00:56:41;;;;;;;17.73;4.23;;;9.90;99.90;;;;;;5134738;27;20353;-67
2022/05/08 00:59:06;;;;;;;21.30;4.90;;;9.80;99.90;;;;;;5134864;27;20281;-67
2022/05/08 01:01:32;;;;;;;16.77;4.53;;;9.80;99.90;;;;;;5135402;27;20285;-67
2022/05/08 01:03:58;;;;;;;29.40;6.40;;;9.80;99.90;;;;;;5135930;27;20051;-67
2022/05/08 01:06:24;;;;;;;23.27;4.93;;;9.80;99.90;;;;;;5135246;27;20243;-68
2022/05/08 01:08:51;;;;;;;20.97;4.33;;;;;;;;;;5135166;27;20050;-68
2022/05/08 01:11:18;;;;;;;25.33;4.30;;;;;;;;;;5135235;27;20284;-68
2022/05/08 01:13:44;;;;;;;20.67;4.13;;;;;;;;;;5101025;27;20324;-68
2022/05/08 01:16:11;;;;;;;16.30;4.37;;;;;;;;;;5135301;27;20778;-68
2022/05/08 01:18:38;;;;;;;22.07;4.50;;;;;;;;;;5135793;27;20276;-68
2022/05/08 01:21:05;;;;;;;23.67;4.77;;;;;;;;;;5134638;27;20284;-67
2022/05/08 01:23:31;;;;;;;18.33;4.47;;;;;;;;;;5135857;27;20313;-67
2022/05/08 01:25:57;;;;;;;24.43;4.87;;;;;;;;;;5135498;27;20285;-68
2022/05/08 01:28:24;;;;;;;18.33;4.47;;;;;;;;;;5134749;27;20283;-67
2022/05/08 01:30:52;;;;;;;26.63;4.17;;;;;;;;;;5135698;27;20355;-67
2022/05/08 01:33:19;;;;;;;20.67;3.90;;;;;;;;;;5135371;27;20372;-67
2022/05/08 01:35:46;;;;;;;21.00;3.73;;;;;;;;;;5135513;27;20348;-67
2022/05/08 01:38:13;;;;;;;24.03;4.87;;;;;;;;;;5117151;27;20289;-67
2022/05/08 01:40:39;;;;;;;17.00;4.90;;;;;;;;;;5135691;27;20307;-67
2022/05/08 01:43:06;;;;;;;20.73;4.57;;;;;;;;;;5117082;27;20345;-67
2022/05/08 01:45:32;;;;;;;18.40;4.30;;;;;;;;;;5134123;27;20686;-67
2022/05/08 01:50:43;;;;;;;16.48;2.92;;;;;;;;;;5135325;27;20280;-67
2022/05/08 01:53:09;;;;;;;16.90;3.67;;;;;;;;;;5134221;27;20379;-68
2022/05/08 01:55:35;;;;;;;19.13;3.63;;;;;;;;;;5134111;27;20402;-67
2022/05/08 01:58:02;;;;;;;16.63;3.63;;;;;;;;;;5135069;27;20380;-67
2022/05/08 02:00:29;;;;;;;19.87;4.00;;;;;;;;;;5135330;27;20292;-67
2022/05/08 02:02:58;;;;;;;15.27;3.07;;;;;;;;;;5135141;27;20355;-67
2022/05/08 02:05:24;;;;;;;14.57;3.30;;;;;;;;;;5135312;27;20356;-67
2022/05/08 02:07:50;;;;;;;16.40;3.90;;;;;;;;;;5135015;27;20313;-67
2022/05/08 02:10:17;;;;;;;21.60;3.43;;;;;;;;;;5134658;27;20630;-67
2022/05/08 02:12:43;;;;;;;21.93;4.00;;;;;;;;;;5133791;27;20285;-67
2022/05/08 02:15:10;;;;;;;17.53;3.77;;;;;;;;;;5134420;27;20346;-67
2022/05/08 02:17:37;;;;;;;18.20;3.33;;;;;;;;;;5134729;27;20288;-67
2022/05/08 02:20:03;;;;;;;16.97;3.37;;;;;;;;;;5134458;27;20303;-67
2022/05/08 02:22:29;;;;;;;17.73;4.17;;;9.40;99.90;;;;;;5134641;27;20283;-66
2022/05/08 02:24:55;;;;;;;14.73;3.50;;;9.30;99.90;;;;;;5133782;27;20288;-66
2022/05/08 02:27:21;;;;;;;12.73;2.90;;;9.20;99.90;;;;;;5133412;27;20090;-66
2022/05/08 02:29:48;;;;;;;20.40;3.00;;;9.10;99.90;;;;;;5134592;27;20699;-66
2022/05/08 02:32:14;;;;;;;19.67;3.20;;;9.10;99.90;;;;;;5116163;27;20047;-66
2022/05/08 02:34:40;;;;;;;20.47;4.07;;;9.10;99.90;;;;;;5134429;27;20292;-66
2022/05/08 02:37:07;;;;;;;22.23;3.70;;;9.00;99.90;;;;;;5134241;27;20276;-67
2022/05/08 02:39:32;;;;;;;14.23;2.77;;;8.90;99.90;;;;;;5134191;27;20780;-66
2022/05/08 02:41:58;;;;;;;17.20;4.50;;;8.90;99.90;;;;;;5133197;27;20341;-66
2022/05/08 02:44:24;;;;;;;16.47;3.60;;;8.90;99.90;;;;;;5134120;27;20091;-67
2022/05/08 02:46:49;;;;;;;21.20;4.47;;;8.90;99.90;;;;;;5134328;27;20074;-66
2022/05/08 02:49:15;;;;;;;15.57;3.13;;;8.80;99.90;;;;;;5115584;27;20475;-67
2022/05/08 02:51:41;;;;;;;15.23;3.53;;;8.80;99.90;;;;;;5134336;27;20047;-66
2022/05/08 02:54:07;;;;;;;13.83;2.90;;;8.80;99.90;;;;;;5115895;27;20184;-67
2022/05/08 02:59:16;;;;;;;16.30;3.60;;;8.70;99.90;;;;;;5133857;27;20066;-67
2022/05/08 03:01:42;;;;;;;15.00;3.27;;;8.80;99.90;;;;;;5134384;27;20269;-67
2022/05/08 03:04:08;;;;;;;10.90;3.03;;;8.80;99.90;;;;;;5133660;27;20424;-67
2022/05/08 03:06:34;;;;;;;14.10;3.03;;;8.90;99.90;;;;;;5133884;27;20039;-67
2022/05/08 03:08:59;;;;;;;18.40;3.80;;;8.90;99.90;;;;;;5132764;27;20139;-67
2022/05/08 03:11:25;;;;;;;12.77;3.20;;;8.90;99.90;;;;;;5132209;27;20054;-67
2022/05/08 03:13:51;;;;;;;14.07;3.30;;;8.90;99.90;;;;;;5133018;27;20043;-67
2022/05/08 03:16:17;;;;;;;16.83;3.53;;;8.80;99.90;;;;;;5133483;27;20562;-67
2022/05/08 03:18:45;;;;;;;13.20;2.60;;;8.80;99.90;;;;;;5133766;27;20361;-67
2022/05/08 03:21:12;;;;;;;14.83;3.23;;;8.80;99.90;;;;;;5132498;28;20294;-67
2022/05/08 03:23:42;;;;;;;11.60;2.90;;;8.70;99.90;;;;;;5133833;27;20300;-66
2022/05/08 03:26:08;;;;;;;10.50;3.20;;;8.80;99.90;;;;;;5133580;27;20280;-69
2022/05/08 03:28:38;;;;;;;11.63;2.80;;;8.80;99.90;;;;;;5133724;27;20292;-66
2022/05/08 03:31:04;;;;;;;13.73;3.00;;;8.80;99.90;;;;;;5132214;28;20610;-66
2022/05/08 03:33:32;;;;;;;20.53;4.37;;;8.80;99.90;;;;;;5133426;27;20280;-66
2022/05/08 03:35:59;;;;;;;14.43;2.93;;;8.70;99.90;;;;;;5132065;28;20308;-66
2022/05/08 03:38:25;;;;;;;14.07;2.73;;;8.80;99.90;;;;;;5133297;27;20696;-67
2022/05/08 03:40:51;;;;;;;14.03;3.13;;;8.70;99.90;;;;;;5132323;28;20324;-67
2022/05/08 03:43:17;;;;;;;13.27;3.20;;;8.80;99.90;;;;;;5133204;28;20363;-67
2022/05/08 03:45:43;;;;;;;12.90;2.37;;;8.80;99.90;;;;;;5133478;28;20332;-66
2022/05/08 03:48:09;;;;;;;11.00;2.77;;;8.80;99.90;;;;;;5133453;27;20047;-66
2022/05/08 03:50:35;;;;;;;11.60;2.63;;;8.80;99.90;;;;;;5132843;27;20280;-66
2022/05/08 03:53:04;;;;;;;11.70;2.90;;;8.80;99.90;;;;;;5133417;27;20054;-66
2022/05/08 03:55:29;;;;;;;12.97;2.87;;;8.80;99.90;;;;;;5132958;27;20773;-66
2022/05/08 03:57:55;;;;;;;11.43;2.70;;;8.80;99.90;;;;;;5133035;27;20285;-66
2022/05/08 04:00:21;;;;;;;11.37;2.83;;;8.80;99.90;;;;;;5133171;28;20096;-67
2022/05/08 04:02:47;;;;;;;9.90;2.90;;;8.80;99.90;;;;;;5133447;27;20070;-67
2022/05/08 04:05:13;;;;;;;11.83;2.67;;;8.80;99.90;;;;;;5133197;27;20277;-68
2022/05/08 04:07:39;;;;;;;11.93;2.67;;;8.90;99.90;;;;;;5132480;28;20486;-66
2022/05/08 04:10:07;;;;;;;14.83;3.10;;;8.90;99.90;;;;;;5133435;27;20035;-66
2022/05/08 04:12:36;;;;;;;13.10;2.77;;;8.80;99.90;;;;;;5133192;27;20055;-66
2022/05/08 04:15:04;;;;;;;10.60;2.60;;;8.80;99.90;;;;;;5132472;27;20788;-67
2022/05/08 04:17:31;;;;;;;17.60;3.33;;;8.90;99.90;;;;;;5135746;27;20284;-66
2022/05/08 04:19:57;;;;;;;8.43;2.60;;;8.90;99.90;;;;;;5136233;27;20819;-66
2022/05/08 04:25:08;;;;;;;11.23;2.87;;;8.90;99.90;;;;;;5137055;27;20054;-66
2022/05/08 04:27:37;;;;;;;9.07;2.10;;;8.90;99.90;;;;;;5135757;27;20377;-66
2022/05/08 04:30:04;;;;;;;14.47;2.80;;;8.90;99.90;;;;;;5137101;27;20756;-66
2022/05/08 04:32:29;;;;;;;10.10;2.40;;;8.90;99.90;;;;;;5135350;27;20312;-66
2022/05/08 04:34:55;;;;;;;8.27;2.10;;;8.90;99.90;;;;;;5135525;27;20344;-66
2022/05/08 04:37:21;;;;;;;15.77;2.27;;;9.00;99.90;;;;;;5136662;27;20047;-67
2022/05/08 04:39:46;;;;;;;10.87;2.13;;;9.00;99.90;;;;;;5136104;27;20372;-66
2022/05/08 04:42:12;;;;;;;12.17;2.37;;;9.00;99.90;;;;;;5136411;27;20074;-67
2022/05/08 04:44:38;;;;;;;13.20;2.63;;;8.90;99.90;;;;;;5136416;27;20100;-67
2022/05/08 04:47:04;;;;;;;12.17;2.80;;;9.00;99.90;;;;;;5136783;27;20745;-67
2022/05/08 04:49:29;;;;;;;5.90;1.80;;;9.00;99.90;;;;;;5136001;27;20043;-67
2022/05/08 04:51:55;;;;;;;13.83;1.97;;;9.10;99.90;;;;;;5136822;27;20054;-66
2022/05/08 04:54:23;;;;;;;12.07;2.33;;;9.10;99.90;;;;;;5136206;27;20047;-67
2022/05/08 04:56:49;;;;;;;8.87;2.30;;;9.10;99.90;;;;;;5134939;27;20357;-66
2022/05/08 04:59:15;;;;;;;13.07;2.37;;;9.20;99.90;;;;;;5135119;27;20291;-66
2022/05/08 05:01:41;;;;;;;11.37;2.23;;;9.20;99.90;;;;;;5135072;27;20289;-67
2022/05/08 05:04:07;;;;;;;13.50;1.90;;;9.30;99.90;;;;;;5136263;27;20280;-66
2022/05/08 05:06:32;;;;;;;10.90;2.40;;;9.40;99.90;;;;;;5135974;27;20039;-66
2022/05/08 05:08:59;;;;;;;8.87;2.17;;;9.40;99.90;;;;;;5136175;27;20046;-67
2022/05/08 05:11:24;;;;;;;13.90;2.20;;;9.70;99.90;;;;;;5134629;27;20043;-67
2022/05/08 05:13:50;;;;;;;12.20;2.33;;;9.50;99.90;;;;;;5136453;27;20390;-66
2022/05/08 05:16:16;;;;;;;8.83;2.13;;;9.50;99.90;;;;;;5136207;27;20122;-66
2022/05/08 05:18:42;;;;;;;13.17;2.30;;;9.60;99.90;;;;;;5134581;27;20055;-67
2022/05/08 05:21:08;;;;;;;12.10;2.60;;;;;;;;;;5117805;27;20039;-66
2022/05/08 05:23:37;;;;;;;7.07;2.17;;;6.70;99.90;;;;;;5135663;27;20090;-67
2022/05/08 05:26:03;;;;;;;12.33;2.70;;;9.80;99.90;;;;;;5135578;27;20276;-67
2022/05/08 05:28:29;;;;;;;7.13;1.80;;;9.90;99.90;;;;;;5134702;27;20380;-67
2022/05/08 05:30:55;;;;;;;11.67;2.43;;;10.10;99.90;;;;;;5100951;27;20055;-66
2022/05/08 05:33:21;;;;;;;9.30;2.20;;;;;;;;;;5135958;27;20341;-67
2022/05/08 05:35:47;;;;;;;10.23;2.43;;;10.60;99.90;;;;;;5134256;27;20548;-66
2022/05/08 05:38:12;;;;;;;13.43;2.90;;;10.60;99.90;;;;;;5134557;27;20280;-66
2022/05/08 05:40:38;;;;;;;9.80;2.07;;;10.60;99.90;;;;;;5134173;27;20050;-66
2022/05/08 05:43:04;;;;;;;10.20;1.97;;;10.80;99.90;;;;;;5135623;27;20050;-66
2022/05/08 05:45:30;;;;;;;10.07;2.10;;;11.00;99.90;;;;;;5135120;27;20043;-67
2022/05/08 05:47:59;;;;;;;9.20;2.17;;;11.60;99.90;;;;;;5135686;27;20277;-66
2022/05/08 05:50:25;;;;;;;10.70;1.87;;;12.70;99.90;;;;;;5135224;27;20046;-70
2022/05/08 05:52:52;;;;;;;10.90;2.30;;;13.90;99.90;;;;;;5135722;27;20280;-67
2022/05/08 05:55:19;;;;;;;9.33;1.97;;;14.90;99.70;;;;;;5135285;27;20293;-67
2022/05/08 05:57:45;;;;;;;8.03;1.83;;;14.90;96.20;;;;;;5134995;27;20670;-67
2022/05/08 06:00:14;;;;;;;11.33;2.50;;;14.60;93.20;;;;;;5135171;27;20280;-67
2022/05/08 06:02:42;;;;;;;8.17;2.03;;;14.20;90.00;;;;;;5134835;27;20273;-67
2022/05/08 06:05:08;;;;;;;11.33;2.57;;;13.70;93.20;;;;;;5135136;27;20285;-66
2022/05/08 06:07:35;;;;;;;10.53;1.93;;;13.40;92.40;;;;;;5134904;27;20312;-67
2022/05/08 06:10:02;;;;;;;10.33;2.57;;;13.60;93.90;;;;;;5135294;27;20289;-66
2022/05/08 06:12:31;;;;;;;11.70;2.80;;;14.50;92.50;;;;;;5134720;27;20283;-67
2022/05/08 06:14:57;;;;;;;9.13;2.43;;;;;;;;;;5134541;27;20273;-67
2022/05/08 06:17:24;;;;;;;9.33;2.20;;;;;;;;;;5134915;27;20107;-67
2022/05/08 06:19:50;;;;;;;10.30;1.87;;;;;;;;;;5134522;27;20640;-67
2022/05/08 06:22:16;;;;;;;9.70;2.40;;;16.90;95.20;;;;;;5134414;27;20764;-67
2022/05/08 06:24:41;;;;;;;8.10;2.33;;;16.80;66.30;;;;;;5134398;27;20276;-67
2022/05/08 06:27:07;;;;;;;9.30;1.83;;;16.50;90.20;;;;;;5133609;27;20051;-67
2022/05/08 06:29:33;;;;;;;7.77;2.37;;;16.10;65.40;;;;;;5134139;27;20398;-67
2022/05/08 06:31:59;;;;;;;11.83;2.00;;;15.90;66.20;;;;;;5134760;27;20043;-66
2022/05/08 06:34:26;;;;;;;9.83;2.20;;;15.60;64.90;;;;;;5134589;27;20090;-67
2022/05/08 06:36:52;;;;;;;9.27;2.60;;;15.10;65.80;;;;;;5134183;27;20126;-67
2022/05/08 06:39:18;;;;;;;11.50;2.43;;;15.00;67.70;;;;;;5134136;27;20047;-67
2022/05/08 06:41:44;;;;;;;9.90;1.87;;;14.90;70.90;;;;;;5134150;27;20291;-67
2022/05/08 06:44:10;;;;;;;8.00;2.10;;;14.90;66.60;;;;;;5134398;27;20047;-67
2022/05/08 06:46:36;;;;;;;9.00;2.30;;;16.00;69.40;;;;;;5133106;27;20039;-67
2022/05/08 06:49:06;;;;;;;11.73;2.90;;;;;;;;;;5133139;27;20039;-67
2022/05/08 06:51:34;;;;;;;9.27;2.47;;;17.70;59.20;;;;;;5132454;27;20552;-68
2022/05/08 06:54:00;;;;;;;9.93;2.50;;;18.10;59.50;;;;;;5134300;27;20069;-67
2022/05/08 06:56:26;;;;;;;11.70;2.40;;;;;;;;;;5133780;27;20079;-67
2022/05/08 07:01:43;;;;;;;11.43;2.60;;;;;;;;;;5133964;27;20454;-67
2022/05/08 07:04:10;;;;;;;10.30;2.33;;;;;;;;;;5134155;27;20103;-67
2022/05/08 07:06:37;;;;;;;13.07;2.77;;;17.00;52.90;;;;;;5133762;27;20085;-67
2022/05/08 07:09:07;;;;;;;13.57;2.27;;;;;;;;;;5134059;27;20101;-67
2022/05/08 07:11:33;;;;;;;10.73;2.20;;;15.80;90.60;;;;;;5133750;27;20498;-67
2022/05/08 07:13:59;;;;;;;8.03;2.40;;;;;;;;;;5133744;27;20126;-66
2022/05/08 07:16:25;;;;;;;10.73;2.40;;;14.50;59.40;;;;;;5133868;27;20046;-67
2022/05/08 07:18:51;;;;;;;11.97;2.10;;;14.70;61.10;;;;;;5133536;27;20043;-66
2022/05/08 07:21:19;;;;;;;9.57;2.20;;;15.20;61.60;;;;;;5132683;28;20134;-67
2022/05/08 07:23:48;;;;;;;9.07;2.17;;;15.20;60.10;;;;;;5132379;28;20094;-66
2022/05/08 07:26:14;;;;;;;13.80;2.57;;;14.90;59.50;;;;;;5132620;28;20039;-66
2022/05/08 07:28:41;;;;;;;9.07;2.20;;;14.90;60.60;;;;;;5133218;27;20051;-67
2022/05/08 07:31:06;;;;;;;12.30;2.63;;;15.30;61.00;;;;;;5133846;27;20039;-66
2022/05/08 07:33:35;;;;;;;6.80;1.90;;;16.00;59.90;;;;;;5133868;28;20047;-66
2022/05/08 07:36:14;;;;;;;11.20;2.37;;;18.60;53.60;;;;;;5133360;27;20043;-66
2022/05/08 07:38:41;;;;;;;7.83;1.93;;;18.80;55.50;;;;;;5133593;27;20051;-67
2022/05/08 07:41:08;;;;;;;9.53;2.07;;;20.30;66.70;;;;;;5132748;28;20046;-67
2022/05/08 07:43:33;;;;;;;11.10;2.77;;;20.30;52.20;;;;;;5133395;27;20499;-67
2022/05/08 07:45:59;;;;;;;12.13;2.83;;;19.70;70.20;;;;;;5132131;28;20082;-67
2022/05/08 07:48:26;;;;;;;12.87;2.60;;;;;;;;;;5133640;27;20039;-67
2022/05/08 07:50:52;;;;;;;9.53;2.60;;;;;;;;;;5135381;27;20047;-67
2022/05/08 07:53:18;;;;;;;9.70;2.50;;;16.90;51.00;;;;;;5137733;27;20069;-67
2022/05/08 07:55:51;;;;;;;8.33;2.50;;;;;;;;;;5137343;27;20051;-67
2022/05/08 07:58:18;;;;;;;9.60;2.20;;;;;;;;;;5137206;27;20098;-67
2022/05/08 08:00:44;;;;;;;9.80;2.50;;;;;;;;;;5135819;27;20051;-68
2022/05/08 08:03:10;;;;;;;8.03;2.53;;;;;;;;;;5136561;27;20047;-67
2022/05/08 08:05:36;;;;;;;14.60;2.80;;;17.60;50.80;;;;;;5136502;27;20039;-67
2022/05/08 08:08:01;;;;;;;14.87;3.30;;;17.80;51.10;;;;;;5136184;27;20054;-67
2022/05/08 08:10:29;;;;;;;11.37;2.90;;;18.30;51.60;;;;;;5136649;27;20059;-67
2022/05/08 08:12:56;;;;;;;13.77;2.90;;;18.60;51.00;;;;;;5137191;27;20542;-67
2022/05/08 08:15:22;;;;;;;11.37;2.23;;;19.00;50.00;;;;;;5137252;27;20039;-67
2022/05/08 08:17:48;;;;;;;11.33;2.87;;;18.80;49.90;;;;;;5136710;27;20061;-67
2022/05/08 08:20:14;;;;;;;9.50;2.20;;;18.50;50.30;;;;;;5137265;27;20059;-67
2022/05/08 08:22:40;;;;;;;10.77;2.77;;;18.30;50.40;;;;;;5137239;27;20051;-67
2022/05/08 08:25:06;;;;;;;10.43;2.73;;;18.20;50.50;;;;;;5136879;27;20384;-67
2022/05/08 08:27:32;;;;;;;8.40;2.40;;;18.00;50.30;;;;;;5137284;27;20043;-67
2022/05/08 08:30:01;;;;;;;11.03;2.60;;;17.60;50.00;;;;;;5135596;27;20539;-67
2022/05/08 08:32:27;;;;;;;12.30;2.73;;;17.40;50.70;;;;;;5137014;27;20062;-68
2022/05/08 08:34:53;;;;;;;8.00;2.57;;;17.30;50.70;;;;;;5135313;27;20136;-68
2022/05/08 08:37:19;;;;;;;7.77;2.30;;;17.10;51.20;;;;;;5135848;27;20528;-67
2022/05/08 08:39:45;;;;;;;11.10;2.70;;;16.90;50.90;;;;;;5135684;27;20043;-67
2022/05/08 08:42:29;;;;;;;10.47;2.70;;;16.70;51.60;;;;;;5136876;27;20046;-66
2022/05/08 08:48:05;;;;;;;9.02;2.28;;;16.40;53.40;;;;;;5136727;27;20134;-66
2022/05/08 08:50:32;;;;;;;9.10;2.57;;;;;;;;;;5137127;27;20035;-66
2022/05/08 08:53:01;;;;;;;11.37;2.40;;;16.00;52.90;;;;;;5136358;27;20143;-66
2022/05/08 08:55:27;;;;;;;7.30;2.43;;;15.80;54.20;;;;;;5136687;27;20410;-65
2022/05/08 08:57:53;;;;;;;8.83;2.37;;;15.80;54.80;;;;;;5136242;27;20062;-66
2022/05/08 09:00:20;;;;;;;8.77;2.30;;;15.60;55.30;;;;;;5135367;27;20051;-67
2022/05/08 09:02:50;;;;;;;9.97;2.20;;;15.70;56.40;;;;;;5133845;27;20043;-67
2022/05/08 09:05:16;;;;;;;10.60;2.50;;;15.70;55.20;;;;;;5133479;27;20486;-67
2022/05/08 09:07:43;;;;;;;11.30;2.87;;;15.80;55.30;;;;;;5134060;27;20096;-67
2022/05/08 09:10:25;;;;;;;8.90;2.30;;;15.70;55.10;;;;;;5134858;27;20104;-68
2022/05/08 09:12:54;;;;;;;7.63;2.07;;;15.70;55.80;;;;;;5134605;27;20426;-68
2022/05/08 09:15:36;;;;;;;11.00;3.03;;;;;;;;;;5133789;27;20039;-67
2022/05/08 09:18:04;;;;;;;10.23;2.23;;;;;;;;;;5134385;27;20372;-68
2022/05/08 09:20:31;;;;;;;9.93;2.23;;;;;;;;;;5135306;27;20047;-66
2022/05/08 09:23:09;;;;;;;9.07;2.37;;;15.70;54.40;;;;;;5134716;27;20051;-67
2022/05/08 09:25:53;;;;;;;12.37;2.40;;;15.60;55.40;;;;;;5133650;27;20119;-67
2022/05/08 09:28:27;;;;;;;8.80;2.30;;;15.40;56.20;;;;;;5134508;27;20047;-66
2022/05/08 09:30:57;;;;;;;11.13;2.67;;;15.30;57.30;;;;;;5134612;27;20043;-68
2022/05/08 09:33:24;;;;;;;12.37;2.57;;;15.10;56.80;;;;;;5134616;27;20483;-67
2022/05/08 09:35:50;;;;;;;9.03;2.40;;;15.10;58.20;;;;;;5133021;27;20159;-67
2022/05/08 09:38:15;;;;;;;10.30;2.47;;;15.00;58.30;;;;;;5130979;27;20055;-67
2022/05/08 09:40:41;;;;;;;13.40;2.80;;;14.90;58.20;;;;;;5134344;27;20046;-68
2022/05/08 09:43:28;;;;;;;12.00;3.53;;;14.90;57.90;;;;;;5133705;27;20495;-67
2022/05/08 09:45:59;;;;;;;10.30;2.50;;;14.80;58.90;;;;;;5132056;27;20039;-67
2022/05/08 09:48:33;;;;;;;11.37;2.93;;;14.80;59.60;;;;;;5116418;27;20060;-67
2022/05/08 09:51:05;;;;;;;14.50;3.05;;;14.90;59.60;;;;;;5134322;27;20054;-66
2022/05/08 09:53:32;;;;;;;10.37;2.63;;;15.00;60.50;;;;;;5132594;27;20087;-66
2022/05/08 09:56:00;;;;;;;9.10;2.30;;;15.20;60.30;;;;;;5131524;27;20303;-66
2022/05/08 09:58:26;;;;;;;7.80;2.10;;;15.20;57.70;;;;;;5132049;27;20297;-66
2022/05/08 10:00:54;;;;;;;11.80;3.10;;;15.00;57.30;;;;;;5134086;27;20051;-66
2022/05/08 10:03:20;;;;;;;12.20;2.77;;;14.80;58.90;;;;;;5134058;27;20329;-66
2022/05/08 10:05:47;;;;;;;11.60;2.40;;;14.60;58.40;;;;;;5129860;27;20361;-66
2022/05/08 10:08:17;;;;;;;10.50;2.40;;;14.50;59.20;;;;;;5133538;27;20770;-67
2022/05/08 10:14:00;;;;;;;12.17;2.90;;;14.50;59.50;;;;;;5131886;27;20372;-66
2022/05/08 10:16:52;;;;;;;10.27;2.20;;;14.50;58.90;;;;;;5131991;27;20296;-66
2022/05/08 10:19:24;;;;;;;9.37;2.10;;;14.40;60.40;;;;;;5132832;27;20273;-66
2022/05/08 10:21:56;;;;;;;13.27;2.40;;;;;;;;;;5132876;27;20300;-67
2022/05/08 10:24:41;;;;;;;10.97;2.60;;;14.30;59.60;;;;;;5130559;27;20300;-66
2022/05/08 10:27:14;;;;;;;12.57;3.00;;;14.20;60.40;;;;;;5133305;27;20277;-66
2022/05/08 10:29:49;;;;;;;9.70;2.47;;;14.20;62.10;;;;;;5133475;27;20069;-66
2022/05/08 10:32:33;;;;;;;8.30;2.47;;;14.40;61.20;;;;;;5134272;27;20281;-66
2022/05/08 10:35:27;;;;;;;13.87;2.33;;;14.40;60.90;;;;;;5134201;27;20043;-67
2022/05/08 10:38:16;;;;;;;10.47;2.20;;;14.30;61.00;;;;;;5133768;27;20361;-66
2022/05/08 10:40:42;;;;;;;14.47;2.43;;;14.20;60.70;;;;;;5134701;27;20637;-66
2022/05/08 10:43:14;;;;;;;12.63;2.60;;;14.10;62.10;;;;;;5134182;27;20598;-66
2022/05/08 10:45:42;;;;;;;8.77;2.37;;;14.20;61.90;;;;;;5134567;27;20629;-66
2022/05/08 10:48:15;;;;;;;11.30;2.60;;;14.20;61.00;;;;;;5133065;27;20299;-67
2022/05/08 10:50:55;;;;;;;14.90;2.07;;;14.20;61.00;;;;;;5134445;27;20281;-66
2022/05/08 10:53:23;;;;;;;13.47;2.50;;;14.20;59.30;;;;;;5133953;27;20311;-66
2022/05/08 10:55:49;;;;;;;10.70;2.53;;;14.10;60.70;;;;;;5133946;27;20304;-66
2022/05/08 10:58:15;;;;;;;13.67;2.40;;;14.10;61.90;;;;;;5131382;27;20285;-67
2022/05/08 11:00:41;;;;;;;8.23;2.10;;;14.20;63.30;;;;;;5133345;27;20641;-68
2022/05/08 11:03:06;;;;;;;9.17;2.57;;;14.20;64.30;;;;;;5133112;28;20475;-68
2022/05/08 11:05:36;;;;;;;11.13;2.37;;;14.30;63.60;;;;;;5132094;28;20039;-67
2022/05/08 11:08:05;;;;;;;9.43;2.30;;;14.30;61.50;;;;;;5132989;28;20074;-69
2022/05/08 11:10:39;;;;;;;10.40;2.37;;;14.30;61.10;;;;;;5132239;28;20292;-67
2022/05/08 11:13:06;;;;;;;9.40;2.07;;;14.30;62.40;;;;;;5133462;28;20620;-68
2022/05/08 11:15:34;;;;;;;10.13;2.17;;;14.40;63.10;;;;;;5133082;28;20625;-67
2022/05/08 11:18:11;;;;;;;9.30;2.30;;;14.40;63.50;;;;;;5133146;28;20292;-67
2022/05/08 11:20:43;;;;;;;8.87;2.10;;;14.40;61.10;;;;;;5131915;28;20296;-67
2022/05/08 11:23:14;;;;;;;9.83;2.63;;;14.30;61.10;;;;;;5131416;28;20602;-66
2022/05/08 11:25:40;;;;;;;13.87;2.57;;;14.30;61.20;;;;;;5129541;27;20321;-67
2022/05/08 11:28:14;;;;;;;12.67;2.83;;;14.30;60.80;;;;;;5131463;28;20372;-70
2022/05/08 11:30:39;;;;;;;10.37;2.10;;;14.40;59.20;;;;;;5133115;27;20307;-70
2022/05/08 11:36:04;;;;;;;15.65;3.00;;;14.50;58.10;;;;;;5131846;28;20457;-72
2022/05/08 11:38:53;;;;;;;10.67;2.97;;;14.20;58.60;;;;;;5132673;27;20054;-69
2022/05/08 11:41:21;;;;;;;10.90;2.47;;;14.30;61.10;;;;;;5142207;27;20639;-70
2022/05/08 11:43:49;;;;;;;8.53;2.20;;;14.30;58.90;;;;;;5131227;28;20299;-66
2022/05/08 11:46:20;;;;;;;13.60;2.33;;;14.30;60.00;;;;;;5128065;28;20285;-69
2022/05/08 11:48:48;;;;;;;13.63;3.50;;;14.20;60.90;;;;;;5132166;28;20289;-68
2022/05/08 11:51:16;;;;;;;9.57;2.40;;;14.20;62.40;;;;;;5131099;28;20363;-69
2022/05/08 11:53:52;;;;;;;9.90;2.20;;;14.30;61.20;;;;;;5132525;27;20277;-70
2022/05/08 11:56:21;;;;;;;9.43;2.30;;;14.30;60.20;;;;;;5132329;27;20700;-68
2022/05/08 11:58:47;;;;;;;13.37;2.50;;;14.30;60.30;;;;;;5086611;28;1281557;-68
2022/05/08 12:01:34;;;;;;;12.33;2.67;;;14.30;60.50;;;;;;5132019;28;20043;-67
2022/05/08 12:04:29;;;;;;;8.30;2.47;;;14.20;60.60;;;;;;5133427;27;20284;-68
2022/05/08 12:07:15;;;;;;;9.53;2.30;;;14.20;60.90;;;;;;5132321;28;20296;-69
2022/05/08 12:09:53;;;;;;;8.37;2.53;;;14.20;61.60;;;;;;5132671;27;20292;-69
2022/05/08 12:12:29;;;;;;;6.20;1.63;;;14.40;58.70;;;;;;5131787;28;20286;-68
2022/05/08 12:15:22;;;;;;;10.03;2.13;;;14.40;57.30;;;;;;5132160;28;20714;-69
2022/05/08 12:17:47;;;;;;;11.43;2.63;;;14.30;57.10;;;;;;5131388;28;20293;-69
2022/05/08 12:20:18;;;;;;;11.67;2.33;;;14.30;58.90;;;;;;5132909;28;20325;-70
2022/05/08 12:22:46;;;;;;;12.23;2.27;;;14.40;59.60;;;;;;5132437;28;20043;-70
2022/05/08 12:25:12;;;;;;;10.13;1.83;;;14.40;59.60;;;;;;5132013;28;20280;-71
2022/05/08 12:27:39;;;;;;;12.00;2.40;;;14.40;60.70;;;;;;5133282;27;20288;-71
2022/05/08 12:30:06;;;;;;;14.20;3.13;;;14.40;61.60;;;;;;5133243;27;20308;-71
2022/05/08 12:32:35;;;;;;;7.70;2.20;;;14.40;60.90;;;;;;5132969;27;20313;-71
2022/05/08 12:35:01;;;;;;;10.03;2.07;;;14.50;58.30;;;;;;5133191;27;20338;-72
2022/05/08 12:37:27;;;;;;;12.33;2.27;;;14.60;58.70;;;;;;5135607;27;20281;-70
2022/05/08 12:39:53;;;;;;;8.47;2.47;;;14.60;57.60;;;;;;5136938;27;20424;-71
2022/05/08 12:42:18;;;;;;;10.13;2.47;;;14.60;58.10;;;;;;5136514;27;20479;-71
2022/05/08 12:44:44;;;;;;;9.63;1.80;;;14.70;57.20;;;;;;5118675;27;20044;-71
2022/05/08 12:47:12;;;;;;;8.60;2.20;;;14.70;56.60;;;;;;5118786;27;20112;-72
2022/05/08 12:49:39;;;;;;;12.23;2.40;;;14.60;57.30;;;;;;5135535;27;20058;-70
2022/05/08 12:52:07;;;;;;;9.67;2.40;;;14.70;57.30;;;;;;5135478;27;20288;-71
2022/05/08 12:54:33;;;;;;;9.87;2.50;;;14.60;57.80;;;;;;5135950;27;21137;-71
2022/05/08 12:57:00;;;;;;;9.93;2.43;;;14.60;57.30;;;;;;5136129;27;20308;-71
2022/05/08 12:59:47;;;;;;;11.83;2.53;;;14.60;58.60;;;;;;5118299;27;20296;-72
2022/05/08 13:02:18;;;;;;;12.03;2.80;;;14.60;59.20;;;;;;5136612;27;20308;-72
2022/05/08 13:04:46;;;;;;;10.47;2.77;;;14.60;60.30;;;;;;5135613;27;20288;-70
2022/05/08 13:07:13;;;;;;;9.70;2.50;;;14.70;60.40;;;;;;5136360;27;20277;-71
2022/05/08 13:09:39;;;;;;;9.57;2.50;;;14.70;59.80;;;;;;5135679;27;20765;-71
2022/05/08 13:12:06;;;;;;;11.47;2.03;;;14.70;60.20;;;;;;5136293;27;20308;-70
2022/05/08 13:14:32;;;;;;;11.40;2.47;;;14.60;60.50;;;;;;5134755;27;20284;-71
2022/05/08 13:16:59;;;;;;;9.13;2.63;;;14.60;61.30;;;;;;5136490;27;20295;-71
2022/05/08 13:19:27;;;;;;;13.33;2.57;;;14.60;60.50;;;;;;5117441;27;20284;-70
2022/05/08 13:21:53;;;;;;;15.03;2.60;;;14.60;61.30;;;;;;5135871;27;20330;-70